createdAt,value
2022-09-26T00:01:32.403Z,10.52
2022-09-26T00:04:04.973Z,10.52
2022-09-26T00:06:31.429Z,10.52
2022-09-26T00:08:58.812Z,10.50
2022-09-26T00:11:31.014Z,10.48
2022-09-26T00:14:01.318Z,10.48
2022-09-26T00:16:28.040Z,10.45
2022-09-26T00:18:56.562Z,10.41
2022-09-26T00:21:23.955Z,10.40
2022-09-26T00:23:51.294Z,10.38
2022-09-26T00:26:19.639Z,10.36
2022-09-26T00:28:46.250Z,10.32
2022-09-26T00:31:18.502Z,10.32
2022-09-26T00:33:45.274Z,10.30
2022-09-26T00:36:11.762Z,10.29
2022-09-26T00:38:38.755Z,10.27
2022-09-26T00:41:05.841Z,10.24
2022-09-26T00:43:41.844Z,10.22
2022-09-26T00:46:35.691Z,10.20
2022-09-26T00:49:34.342Z,10.14
2022-09-26T00:52:09.745Z,10.06
2022-09-26T00:54:38.740Z,10.02
2022-09-26T00:57:10.971Z,10.00
2022-09-26T00:59:41.746Z,9.96
2022-09-26T01:02:09.336Z,9.93
2022-09-26T01:04:38.365Z,9.92
2022-09-26T01:07:10.453Z,9.90
2022-09-26T01:09:39.209Z,9.86
2022-09-26T01:12:08.761Z,9.78
2022-09-26T01:14:37.693Z,9.73
2022-09-26T01:17:05.095Z,9.68
2022-09-26T01:19:56.503Z,9.65
2022-09-26T01:22:32.527Z,9.64
2022-09-26T01:25:32.400Z,9.65
2022-09-26T01:28:21.923Z,9.65
2022-09-26T01:30:54.913Z,9.65
2022-09-26T01:33:36.545Z,9.65
2022-09-26T01:36:16.172Z,9.64
2022-09-26T01:38:51.713Z,9.61
2022-09-26T01:41:36.892Z,9.58
2022-09-26T01:44:06.748Z,9.53
2022-09-26T01:46:42.639Z,9.45
2022-09-26T01:49:26.129Z,9.38
2022-09-26T01:52:10.490Z,9.31
2022-09-26T01:54:57.614Z,9.24
2022-09-26T01:57:31.493Z,9.17
2022-09-26T02:00:00.753Z,9.14
2022-09-26T02:02:29.207Z,9.13
2022-09-26T02:05:08.212Z,9.15
2022-09-26T02:07:44.365Z,9.17
2022-09-26T02:10:20.253Z,9.22
2022-09-26T02:12:50.728Z,9.27
2022-09-26T02:15:19.237Z,9.31
2022-09-26T02:17:49.111Z,9.34
2022-09-26T02:20:21.426Z,9.32
2022-09-26T02:22:47.893Z,9.30
2022-09-26T02:25:15.762Z,9.28
2022-09-26T02:27:42.148Z,9.26
2022-09-26T02:30:09.785Z,9.21
2022-09-26T02:32:37.252Z,9.17
2022-09-26T02:35:24.864Z,9.16
2022-09-26T02:37:53.463Z,9.12
2022-09-26T02:40:26.581Z,9.10
2022-09-26T02:42:58.156Z,9.11
2022-09-26T02:45:28.154Z,9.10
2022-09-26T02:48:12.939Z,9.11
2022-09-26T02:51:03.245Z,9.11
2022-09-26T02:53:48.449Z,9.10
2022-09-26T02:56:23.469Z,9.08
2022-09-26T02:58:55.279Z,9.07
2022-09-26T03:01:42.111Z,9.02
2022-09-26T03:04:22.581Z,8.96
2022-09-26T03:06:51.193Z,8.91
2022-09-26T03:09:18.772Z,8.88
2022-09-26T03:11:46.360Z,8.82
2022-09-26T03:14:13.230Z,8.75
2022-09-26T03:16:43.241Z,8.72
2022-09-26T03:19:12.068Z,8.67
2022-09-26T03:21:38.825Z,8.62
2022-09-26T03:24:05.511Z,8.61
2022-09-26T03:26:33.183Z,8.59
2022-09-26T03:29:02.341Z,8.58
2022-09-26T03:31:31.416Z,8.56
2022-09-26T03:34:00.398Z,8.56
2022-09-26T03:36:27.658Z,8.54
2022-09-26T03:38:54.081Z,8.52
2022-09-26T03:41:43.183Z,8.52
2022-09-26T03:44:21.782Z,8.47
2022-09-26T03:47:11.076Z,8.44
2022-09-26T03:49:42.120Z,8.40
2022-09-26T03:52:10.743Z,8.34
2022-09-26T03:54:37.622Z,8.35
2022-09-26T03:57:04.031Z,8.39
2022-09-26T03:59:33.481Z,8.41
2022-09-26T04:02:00.044Z,8.43
2022-09-26T04:04:27.669Z,8.41
2022-09-26T04:06:54.103Z,8.42
2022-09-26T04:09:20.868Z,8.44
2022-09-26T04:11:51.030Z,8.48
2022-09-26T04:14:17.678Z,8.51
2022-09-26T04:16:47.987Z,8.49
2022-09-26T04:19:33.730Z,8.50
2022-09-26T04:22:01.140Z,8.54
2022-09-26T04:24:30.727Z,8.59
2022-09-26T04:26:57.188Z,8.63
2022-09-26T04:29:24.312Z,8.68
2022-09-26T04:32:00.758Z,8.74
2022-09-26T04:34:39.898Z,8.81
2022-09-26T04:37:08.964Z,8.89
2022-09-26T04:39:35.912Z,8.94
2022-09-26T04:42:02.397Z,8.94
2022-09-26T04:44:30.338Z,8.96
2022-09-26T04:46:58.225Z,8.97
2022-09-26T04:49:36.844Z,8.95
2022-09-26T04:52:04.591Z,8.92
2022-09-26T04:54:31.112Z,8.89
2022-09-26T04:56:59.311Z,8.88
2022-09-26T04:59:25.686Z,8.89
2022-09-26T05:02:00.780Z,8.90
2022-09-26T05:04:36.137Z,8.93
2022-09-26T05:07:02.636Z,8.95
2022-09-26T05:09:35.944Z,8.98
2022-09-26T05:12:10.048Z,8.99
2022-09-26T05:14:38.151Z,8.99
2022-09-26T05:17:04.649Z,8.98
2022-09-26T05:19:32.230Z,8.99
2022-09-26T05:22:16.889Z,8.98
2022-09-26T05:25:01.956Z,8.98
2022-09-26T05:27:28.576Z,8.99
2022-09-26T05:29:56.980Z,8.98
2022-09-26T05:32:24.223Z,9.00
2022-09-26T05:34:51.909Z,9.02
2022-09-26T05:37:20.669Z,9.05
2022-09-26T05:40:05.962Z,9.08
2022-09-26T05:42:36.184Z,9.12
2022-09-26T05:45:03.787Z,9.15
2022-09-26T05:47:34.508Z,9.15
2022-09-26T05:50:01.107Z,9.19
2022-09-26T05:52:28.925Z,9.22
2022-09-26T05:54:56.441Z,9.24
2022-09-26T05:57:52.197Z,9.24
2022-09-26T06:00:21.343Z,9.28
2022-09-26T06:02:53.941Z,9.30
2022-09-26T06:05:34.998Z,9.29
2022-09-26T06:08:08.925Z,9.29
2022-09-26T06:10:42.424Z,9.30
2022-09-26T06:13:08.804Z,9.34
2022-09-26T06:15:43.205Z,9.42
2022-09-26T06:18:09.607Z,9.48
2022-09-26T06:20:35.991Z,9.53
2022-09-26T06:23:02.699Z,9.60
2022-09-26T06:25:29.349Z,9.66
2022-09-26T06:28:00.213Z,9.73
2022-09-26T06:30:27.254Z,9.78
2022-09-26T06:33:03.721Z,9.86
2022-09-26T06:36:00.498Z,9.92
2022-09-26T06:38:32.488Z,9.96
2022-09-26T06:40:59.019Z,10.01
2022-09-26T06:43:25.624Z,10.06
2022-09-26T06:46:11.020Z,10.15
2022-09-26T06:48:47.034Z,10.26
2022-09-26T06:51:19.968Z,10.35
2022-09-26T06:53:46.816Z,10.41
2022-09-26T06:56:18.516Z,10.45
2022-09-26T06:58:45.402Z,10.49
2022-09-26T07:01:15.301Z,10.54
2022-09-26T07:04:02.588Z,10.61
2022-09-26T07:06:38.163Z,10.73
2022-09-26T07:09:11.238Z,10.81
2022-09-26T07:12:15.028Z,10.93
2022-09-26T07:14:42.606Z,11.03
2022-09-26T07:17:21.500Z,11.11
2022-09-26T07:20:08.042Z,11.20
2022-09-26T07:23:00.180Z,11.26
2022-09-26T07:25:26.576Z,11.33
2022-09-26T07:27:53.090Z,11.37
2022-09-26T07:30:24.382Z,11.37
2022-09-26T07:33:01.063Z,11.37
2022-09-26T07:35:35.527Z,11.42
2022-09-26T07:38:02.502Z,11.50
2022-09-26T07:40:29.218Z,11.60
2022-09-26T07:43:18.561Z,11.66
2022-09-26T07:46:04.969Z,11.77
2022-09-26T07:48:50.108Z,11.88
2022-09-26T07:51:54.116Z,11.97
2022-09-26T07:54:21.693Z,12.04
2022-09-26T07:57:05.971Z,12.12
2022-09-26T07:59:58.622Z,12.20
2022-09-26T08:02:42.661Z,12.34
2022-09-26T08:05:11.478Z,12.46
2022-09-26T08:07:38.163Z,12.55
2022-09-26T08:10:24.802Z,12.62
2022-09-26T08:13:10.024Z,12.69
2022-09-26T08:16:06.130Z,12.75
2022-09-26T08:18:37.361Z,12.78
2022-09-26T08:21:05.675Z,12.82
2022-09-26T08:23:35.543Z,12.83
2022-09-26T08:26:31.020Z,12.83
2022-09-26T08:29:11.158Z,12.85
2022-09-26T08:31:38.637Z,12.97
2022-09-26T08:34:06.220Z,13.10
2022-09-26T08:36:37.061Z,13.31
2022-09-26T08:39:06.315Z,13.57
2022-09-26T08:42:01.890Z,13.62
2022-09-26T08:44:49.163Z,13.61
2022-09-26T08:47:49.741Z,13.67
2022-09-26T08:50:35.456Z,13.74
2022-09-26T08:53:03.654Z,13.91
2022-09-26T08:55:38.945Z,13.96
2022-09-26T08:58:12.491Z,13.89
2022-09-26T09:00:38.993Z,13.86
2022-09-26T09:03:22.963Z,13.91
2022-09-26T09:05:51.814Z,13.88
2022-09-26T09:08:35.221Z,13.84
2022-09-26T09:11:29.637Z,13.94
2022-09-26T09:13:55.993Z,14.17
2022-09-26T09:17:21.265Z,14.43
2022-09-26T09:19:51.532Z,14.70
2022-09-26T09:22:48.048Z,14.89
2022-09-26T09:25:32.736Z,15.06
2022-09-26T09:28:14.215Z,15.19
2022-09-26T09:30:50.529Z,15.52
2022-09-26T09:33:49.499Z,15.64
2022-09-26T09:36:41.617Z,15.72
2022-09-26T09:39:47.657Z,15.75
2022-09-26T09:42:36.178Z,15.58
2022-09-26T09:45:06.855Z,15.50
2022-09-26T09:47:38.252Z,15.46
2022-09-26T09:50:12.102Z,15.56
2022-09-26T09:52:54.532Z,15.78
2022-09-26T09:55:59.481Z,15.95
2022-09-26T09:58:29.902Z,16.13
2022-09-26T10:01:12.245Z,16.19
2022-09-26T10:03:44.439Z,16.13
2022-09-26T10:06:44.468Z,16.07
2022-09-26T10:09:38.417Z,16.02
2022-09-26T10:12:14.040Z,16.09
2022-09-26T10:15:19.573Z,16.19
2022-09-26T10:18:24.821Z,16.27
2022-09-26T10:21:17.839Z,16.39
2022-09-26T10:23:49.286Z,16.50
2022-09-26T10:26:39.637Z,16.46
2022-09-26T10:29:21.277Z,16.41
2022-09-26T10:31:55.495Z,16.33
2022-09-26T10:34:29.913Z,16.33
2022-09-26T10:36:56.977Z,16.37
2022-09-26T10:39:48.283Z,16.49
2022-09-26T10:42:14.945Z,16.60
2022-09-26T10:44:43.036Z,16.62
2022-09-26T10:47:26.312Z,16.57
2022-09-26T10:50:29.263Z,16.58
2022-09-26T10:53:15.526Z,16.69
2022-09-26T10:55:44.739Z,16.74
2022-09-26T10:58:22.692Z,16.83
2022-09-26T11:00:53.633Z,16.86
2022-09-26T11:03:41.266Z,16.89
2022-09-26T11:06:35.641Z,16.95
2022-09-26T11:09:18.567Z,16.98
2022-09-26T11:12:22.365Z,16.89
2022-09-26T11:14:53.074Z,16.69
2022-09-26T11:17:20.025Z,16.48
2022-09-26T11:19:58.292Z,16.41
2022-09-26T11:22:30.396Z,16.39
2022-09-26T11:25:07.230Z,16.38
2022-09-26T11:27:43.921Z,16.19
2022-09-26T11:30:19.415Z,15.98
2022-09-26T11:32:55.392Z,15.94
2022-09-26T11:35:51.687Z,16.01
2022-09-26T11:38:39.154Z,16.17
2022-09-26T11:41:36.634Z,16.33
2022-09-26T11:44:13.104Z,16.47
2022-09-26T11:47:05.833Z,16.56
2022-09-26T11:49:50.618Z,16.62
2022-09-26T11:52:49.542Z,16.62
2022-09-26T11:55:45.511Z,16.59
2022-09-26T11:58:14.705Z,16.50
2022-09-26T12:00:51.852Z,16.31
2022-09-26T12:03:31.321Z,16.05
2022-09-26T12:05:59.615Z,15.82
2022-09-26T12:08:41.951Z,15.69
2022-09-26T12:11:33.903Z,15.60
2022-09-26T12:14:09.222Z,15.65
2022-09-26T12:16:41.115Z,15.76
2022-09-26T12:19:16.760Z,15.81
2022-09-26T12:22:11.381Z,15.91
2022-09-26T12:24:56.433Z,16.04
2022-09-26T12:27:25.777Z,16.15
2022-09-26T12:30:02.993Z,16.24
2022-09-26T12:32:50.077Z,16.32
2022-09-26T12:35:18.769Z,16.43
2022-09-26T12:37:57.256Z,16.55
2022-09-26T12:40:40.970Z,16.76
2022-09-26T12:43:07.539Z,16.90
2022-09-26T12:45:53.738Z,16.93
2022-09-26T12:48:32.299Z,16.97
2022-09-26T12:51:12.539Z,16.98
2022-09-26T12:53:52.709Z,17.03
2022-09-26T12:56:19.182Z,17.11
2022-09-26T12:58:45.658Z,17.15
2022-09-26T13:01:32.419Z,17.22
2022-09-26T13:04:05.041Z,17.32
2022-09-26T13:06:37.727Z,17.38
2022-09-26T13:09:30.138Z,17.39
2022-09-26T13:12:09.322Z,17.40
2022-09-26T13:14:39.535Z,17.32
2022-09-26T13:17:13.918Z,17.07
2022-09-26T13:19:48.184Z,16.76
2022-09-26T13:22:17.650Z,16.46
2022-09-26T13:25:05.915Z,16.23
2022-09-26T13:27:36.214Z,16.04
2022-09-26T13:30:15.841Z,15.93
2022-09-26T13:32:49.899Z,15.84
2022-09-26T13:35:20.906Z,15.76
2022-09-26T13:38:02.977Z,15.69
2022-09-26T13:40:42.890Z,15.68
2022-09-26T13:43:19.320Z,15.64
2022-09-26T13:46:14.305Z,15.57
2022-09-26T13:48:40.711Z,15.52
2022-09-26T13:51:39.337Z,15.47
2022-09-26T13:54:16.782Z,15.44
2022-09-26T13:56:47.495Z,15.46
2022-09-26T13:59:14.543Z,15.49
2022-09-26T14:01:59.707Z,15.52
2022-09-26T14:04:33.641Z,15.57
2022-09-26T14:07:28.989Z,15.65
2022-09-26T14:09:55.344Z,15.70
2022-09-26T14:12:32.136Z,15.72
2022-09-26T14:15:16.887Z,15.76
2022-09-26T14:17:43.433Z,15.81
2022-09-26T14:20:27.280Z,15.88
2022-09-26T14:22:55.139Z,15.89
2022-09-26T14:25:44.903Z,15.88
2022-09-26T14:28:21.581Z,15.93
2022-09-26T14:31:13.921Z,15.99
2022-09-26T14:33:40.690Z,15.97
2022-09-26T14:36:18.084Z,16.00
2022-09-26T14:38:48.479Z,16.05
2022-09-26T14:41:18.992Z,16.02
2022-09-26T14:43:46.263Z,16.07
2022-09-26T14:46:17.845Z,16.11
2022-09-26T14:48:44.976Z,16.19
2022-09-26T14:51:11.442Z,16.22
2022-09-26T14:53:47.056Z,16.19
2022-09-26T14:56:18.268Z,16.14
2022-09-26T14:58:46.186Z,16.11
2022-09-26T15:01:18.020Z,16.06
2022-09-26T15:03:59.994Z,16.11
2022-09-26T15:06:27.633Z,16.20
2022-09-26T15:08:54.896Z,16.31
2022-09-26T15:11:33.013Z,16.44
2022-09-26T15:14:01.849Z,16.59
2022-09-26T15:16:32.450Z,16.56
2022-09-26T15:19:02.930Z,16.45
2022-09-26T15:21:50.836Z,16.31
2022-09-26T15:24:23.894Z,16.20
2022-09-26T15:26:50.285Z,16.06
2022-09-26T15:29:17.574Z,15.91
2022-09-26T15:31:44.779Z,15.76
2022-09-26T15:34:16.440Z,15.61
2022-09-26T15:36:44.280Z,15.49
2022-09-26T15:39:29.472Z,15.40
2022-09-26T15:42:14.580Z,15.35
2022-09-26T15:45:07.398Z,15.28
2022-09-26T15:47:41.467Z,15.23
2022-09-26T15:50:12.631Z,15.19
2022-09-26T15:52:42.412Z,15.08
2022-09-26T15:55:15.372Z,15.00
2022-09-26T15:57:42.426Z,14.91
2022-09-26T16:00:09.947Z,14.84
2022-09-26T16:02:37.180Z,14.76
2022-09-26T16:05:03.745Z,14.69
2022-09-26T16:07:33.147Z,14.63
2022-09-26T16:09:59.701Z,14.60
2022-09-26T16:12:29.427Z,14.60
2022-09-26T16:15:02.714Z,14.64
2022-09-26T16:17:36.519Z,14.64
2022-09-26T16:20:18.185Z,14.60
2022-09-26T16:22:45.459Z,14.61
2022-09-26T16:25:18.379Z,14.63
2022-09-26T16:27:49.553Z,14.59
2022-09-26T16:30:23.596Z,14.56
2022-09-26T16:32:50.819Z,14.52
2022-09-26T16:35:19.683Z,14.46
2022-09-26T16:38:03.591Z,14.42
2022-09-26T16:40:31.114Z,14.37
2022-09-26T16:43:13.992Z,14.32
2022-09-26T16:45:50.250Z,14.30
2022-09-26T16:48:52.149Z,14.28
2022-09-26T16:51:21.329Z,14.24
2022-09-26T16:53:49.426Z,14.20
2022-09-26T16:56:17.444Z,14.17
2022-09-26T16:58:55.218Z,14.12
2022-09-26T17:01:40.997Z,14.09
2022-09-26T17:04:18.290Z,14.04
2022-09-26T17:06:47.723Z,14.01
2022-09-26T17:09:15.969Z,13.95
2022-09-26T17:11:43.214Z,13.79
2022-09-26T17:14:13.097Z,13.66
2022-09-26T17:16:39.541Z,13.53
2022-09-26T17:19:06.014Z,13.44
2022-09-26T17:21:32.436Z,13.38
2022-09-26T17:23:58.856Z,13.34
2022-09-26T17:26:25.439Z,13.31
2022-09-26T17:28:53.241Z,13.25
2022-09-26T17:31:20.351Z,13.17
2022-09-26T17:33:49.272Z,13.11
2022-09-26T17:36:27.215Z,13.05
2022-09-26T17:38:54.714Z,12.99
2022-09-26T17:41:23.044Z,12.98
2022-09-26T17:43:58.754Z,12.97
2022-09-26T17:46:25.756Z,12.86
2022-09-26T17:48:52.251Z,12.79
2022-09-26T17:51:21.043Z,12.75
2022-09-26T17:53:51.078Z,12.70
2022-09-26T17:56:21.869Z,12.65
2022-09-26T17:58:48.953Z,12.62
2022-09-26T18:01:22.233Z,12.57
2022-09-26T18:03:49.958Z,12.54
2022-09-26T18:06:16.734Z,12.52
2022-09-26T18:08:43.653Z,12.49
2022-09-26T18:11:14.957Z,12.42
2022-09-26T18:13:47.336Z,12.38
2022-09-26T18:16:14.753Z,12.35
2022-09-26T18:18:41.234Z,12.31
2022-09-26T18:21:12.226Z,12.30
2022-09-26T18:23:38.585Z,12.29
2022-09-26T18:26:05.341Z,12.26
2022-09-26T18:28:31.947Z,12.25
2022-09-26T18:31:00.901Z,12.23
2022-09-26T18:33:29.100Z,12.23
2022-09-26T18:35:58.484Z,12.21
2022-09-26T18:38:25.247Z,12.20
2022-09-26T18:40:55.313Z,12.14
2022-09-26T18:43:23.144Z,12.10
2022-09-26T18:45:50.054Z,12.06
2022-09-26T18:48:24.424Z,12.01
2022-09-26T18:50:51.181Z,11.98
2022-09-26T18:53:19.432Z,11.90
2022-09-26T18:56:04.362Z,11.84
2022-09-26T18:58:32.351Z,11.81
2022-09-26T19:01:00.767Z,11.75
2022-09-26T19:03:28.507Z,11.70
2022-09-26T19:06:00.253Z,11.67
2022-09-26T19:08:37.923Z,11.65
2022-09-26T19:11:13.176Z,11.63
2022-09-26T19:13:40.334Z,11.57
2022-09-26T19:16:07.135Z,11.53
2022-09-26T19:18:33.542Z,11.47
2022-09-26T19:21:00.811Z,11.43
2022-09-26T19:23:30.183Z,11.39
2022-09-26T19:25:56.783Z,11.37
2022-09-26T19:28:24.245Z,11.35
2022-09-26T19:30:50.875Z,11.33
2022-09-26T19:33:17.460Z,11.29
2022-09-26T19:35:44.514Z,11.25
2022-09-26T19:38:19.066Z,11.22
2022-09-26T19:40:48.772Z,11.23
2022-09-26T19:43:15.712Z,11.22
2022-09-26T19:45:43.512Z,11.19
2022-09-26T19:48:13.266Z,11.14
2022-09-26T19:50:40.188Z,11.09
2022-09-26T19:53:12.526Z,11.06
2022-09-26T19:55:39.432Z,11.06
2022-09-26T19:58:17.083Z,11.06
2022-09-26T20:00:44.735Z,11.04
2022-09-26T20:03:15.592Z,11.02
2022-09-26T20:05:42.255Z,11.00
2022-09-26T20:08:12.821Z,10.99
2022-09-26T20:10:39.194Z,11.00
2022-09-26T20:13:05.563Z,11.00
2022-09-26T20:15:32.020Z,11.01
2022-09-26T20:18:00.272Z,11.05
2022-09-26T20:20:27.607Z,11.06
2022-09-26T20:22:58.657Z,11.06
2022-09-26T20:25:27.221Z,11.05
2022-09-26T20:27:54.724Z,11.03
2022-09-26T20:30:39.988Z,11.02
2022-09-26T20:33:06.758Z,10.99
2022-09-26T20:35:36.684Z,10.99
2022-09-26T20:38:05.041Z,10.97
2022-09-26T20:40:32.224Z,10.95
2022-09-26T20:43:03.784Z,10.91
2022-09-26T20:45:31.689Z,10.88
2022-09-26T20:47:59.268Z,10.87
2022-09-26T20:50:29.467Z,10.88
2022-09-26T20:52:58.303Z,10.86
2022-09-26T20:55:24.825Z,10.80
2022-09-26T20:57:51.462Z,10.78
2022-09-26T21:00:19.473Z,10.78
2022-09-26T21:02:47.412Z,10.79
2022-09-26T21:05:18.324Z,10.78
2022-09-26T21:07:44.936Z,10.77
2022-09-26T21:10:28.697Z,10.79
2022-09-26T21:12:56.632Z,10.75
2022-09-26T21:15:23.842Z,10.77
2022-09-26T21:17:51.464Z,10.76
2022-09-26T21:20:25.609Z,10.78
2022-09-26T21:23:02.120Z,10.77
2022-09-26T21:25:30.130Z,10.77
2022-09-26T21:28:01.412Z,10.77
2022-09-26T21:30:28.224Z,10.78
2022-09-26T21:32:56.202Z,10.80
2022-09-26T21:35:24.365Z,10.79
2022-09-26T21:37:52.117Z,10.81
2022-09-26T21:40:19.853Z,10.85
2022-09-26T21:42:50.427Z,10.87
2022-09-26T21:45:17.398Z,10.88
2022-09-26T21:47:44.092Z,10.88
2022-09-26T21:50:12.253Z,10.90
2022-09-26T21:52:41.071Z,10.88
2022-09-26T21:55:10.565Z,10.86
2022-09-26T21:57:41.829Z,10.84
2022-09-26T22:00:10.490Z,10.83
2022-09-26T22:02:41.474Z,10.84
2022-09-26T22:05:09.237Z,10.83
2022-09-26T22:07:35.929Z,10.80
2022-09-26T22:10:02.752Z,10.79
2022-09-26T22:12:29.184Z,10.79
2022-09-26T22:14:55.675Z,10.81
2022-09-26T22:17:22.492Z,10.83
2022-09-26T22:19:49.353Z,10.84
2022-09-26T22:22:17.234Z,10.85
2022-09-26T22:24:43.618Z,10.83
2022-09-26T22:27:10.170Z,10.83
2022-09-26T22:29:36.585Z,10.83
2022-09-26T22:32:03.949Z,10.83
2022-09-26T22:34:32.180Z,10.84
2022-09-26T22:36:58.588Z,10.84
2022-09-26T22:39:25.001Z,10.85
2022-09-26T22:41:51.416Z,10.85
2022-09-26T22:44:17.925Z,10.87
2022-09-26T22:46:44.405Z,10.91
2022-09-26T22:49:10.921Z,10.93
2022-09-26T22:51:37.397Z,10.96
2022-09-26T22:54:03.832Z,10.98
2022-09-26T22:56:30.333Z,10.98
2022-09-26T22:58:56.765Z,10.99
2022-09-26T23:01:24.777Z,10.98
2022-09-26T23:03:54.464Z,11.00
2022-09-26T23:06:21.986Z,11.02
2022-09-26T23:08:48.531Z,11.04
2022-09-26T23:11:15.117Z,11.04
2022-09-26T23:13:41.684Z,11.05
2022-09-26T23:16:17.000Z,11.06
2022-09-26T23:18:43.895Z,11.04
2022-09-26T23:21:11.600Z,11.03
2022-09-26T23:23:38.780Z,11.03
2022-09-26T23:26:13.740Z,11.04
2022-09-26T23:28:40.247Z,11.06
2022-09-26T23:31:07.898Z,11.06
2022-09-26T23:33:34.573Z,11.10
2022-09-26T23:36:01.162Z,11.15
2022-09-26T23:38:27.926Z,11.19
2022-09-26T23:40:54.966Z,11.21
2022-09-26T23:43:22.061Z,11.21
2022-09-26T23:45:48.869Z,11.22
2022-09-26T23:48:15.868Z,11.21
2022-09-26T23:50:43.762Z,11.19
2022-09-26T23:53:10.652Z,11.16
2022-09-26T23:55:37.092Z,11.15
2022-09-26T23:58:03.597Z,11.11
